createdAt,value
2019-05-18T00:00:21.588Z,98866.30
2019-05-18T00:02:48.282Z,98868.81
2019-05-18T00:05:15.080Z,98867.18
2019-05-18T00:07:41.859Z,98870.52
2019-05-18T00:10:09.740Z,98872.70
2019-05-18T00:12:36.515Z,98879.76
2019-05-18T00:15:03.319Z,98877.80
2019-05-18T00:17:30.087Z,98872.08
2019-05-18T00:19:57.193Z,98869.34
2019-05-18T00:22:23.766Z,98871.16
2019-05-18T00:24:50.697Z,98874.92
2019-05-18T00:27:17.459Z,98874.98
2019-05-18T00:29:44.687Z,98871.05
2019-05-18T00:32:11.361Z,98860.03
2019-05-18T00:34:37.953Z,98859.39
2019-05-18T00:37:04.619Z,98857.50
2019-05-18T00:39:31.453Z,98854.23
2019-05-18T00:41:58.116Z,98852.20
2019-05-18T00:44:24.839Z,98854.23
2019-05-18T00:46:51.496Z,98856.43
2019-05-18T00:49:18.325Z,98855.84
2019-05-18T00:51:44.997Z,98857.92
2019-05-18T00:54:12.239Z,98856.39
2019-05-18T00:56:39.004Z,98850.55
2019-05-18T00:59:05.699Z,98852.89
2019-05-18T01:01:32.518Z,98852.16
2019-05-18T01:03:59.177Z,98848.75
2019-05-18T01:06:25.859Z,98853.66
2019-05-18T01:08:53.604Z,98843.52
2019-05-18T01:11:20.388Z,98854.12
2019-05-18T01:13:47.163Z,98851.72
2019-05-18T01:16:13.843Z,98855.66
2019-05-18T01:18:40.617Z,98851.14
2019-05-18T01:21:07.414Z,98855.70
2019-05-18T01:23:34.327Z,98848.89
2019-05-18T01:26:01.459Z,98855.56
2019-05-18T01:28:28.222Z,98850.55
2019-05-18T01:30:55.011Z,98860.16
2019-05-18T01:33:21.913Z,98850.18
2019-05-18T01:35:48.752Z,98854.52
2019-05-18T01:38:15.509Z,98843.91
2019-05-18T01:40:42.436Z,98848.50
2019-05-18T01:43:09.553Z,98848.86
2019-05-18T01:45:36.361Z,98848.75
2019-05-18T01:48:13.424Z,98846.72
2019-05-18T01:50:31.808Z,98844.72
2019-05-18T01:52:58.360Z,98846.95
2019-05-18T01:55:25.165Z,98850.09
2019-05-18T01:57:51.842Z,98845.39
2019-05-18T02:00:19.624Z,98813.53
2019-05-18T02:02:46.273Z,98852.63
2019-05-18T02:05:13.075Z,98851.55
2019-05-18T02:07:39.814Z,98850.91
2019-05-18T02:10:07.301Z,98848.66
2019-05-18T02:12:34.122Z,98847.94
2019-05-18T02:15:01.205Z,98848.30
2019-05-18T02:17:28.083Z,98843.73
2019-05-18T02:19:54.861Z,98847.17
2019-05-18T02:22:21.645Z,98848.37
2019-05-18T02:24:48.208Z,98841.88
2019-05-18T02:27:14.786Z,98840.39
2019-05-18T02:29:41.543Z,98847.77
2019-05-18T02:32:08.355Z,98845.75
2019-05-18T02:34:35.019Z,98847.20
2019-05-18T02:37:01.809Z,98843.92
2019-05-18T02:39:28.602Z,98841.34
2019-05-18T02:41:58.524Z,98838.67
2019-05-18T02:44:25.233Z,98840.45
2019-05-18T02:46:51.870Z,98838.47
2019-05-18T02:49:18.667Z,98838.23
2019-05-18T02:51:45.486Z,98840.73
2019-05-18T02:54:12.273Z,98836.88
2019-05-18T02:56:39.044Z,98840.38
2019-05-18T02:59:05.810Z,98835.14
2019-05-18T03:01:32.591Z,98841.33
2019-05-18T03:03:59.379Z,98837.81
2019-05-18T03:06:26.061Z,98840.52
2019-05-18T03:08:52.915Z,98834.73
2019-05-18T03:11:19.581Z,98835.45
2019-05-18T03:13:46.365Z,98839.31
2019-05-18T03:16:13.036Z,98827.36
2019-05-18T03:18:39.987Z,98830.73
2019-05-18T03:21:06.658Z,98831.66
2019-05-18T03:23:33.355Z,98828.63
2019-05-18T03:26:00.138Z,98827.70
2019-05-18T03:28:26.796Z,98829.85
2019-05-18T03:30:53.623Z,98824.12
2019-05-18T03:33:20.312Z,98829.65
2019-05-18T03:35:46.894Z,98837.64
2019-05-18T03:38:13.650Z,98830.68
2019-05-18T03:40:40.349Z,98834.14
2019-05-18T03:43:07.027Z,98829.84
2019-05-18T03:45:33.799Z,98829.98
2019-05-18T03:48:00.377Z,98833.49
2019-05-18T03:50:27.531Z,98841.22
2019-05-18T03:52:54.123Z,98833.95
2019-05-18T03:55:20.685Z,98833.03
2019-05-18T03:57:47.467Z,98831.84
2019-05-18T04:00:14.528Z,98831.14
2019-05-18T04:02:41.207Z,98828.10
2019-05-18T04:05:07.986Z,98830.11
2019-05-18T04:07:34.776Z,98825.58
2019-05-18T04:10:01.559Z,98827.83
2019-05-18T04:12:28.250Z,98833.05
2019-05-18T04:14:55.011Z,98828.56
2019-05-18T04:17:21.697Z,98831.21
2019-05-18T04:19:48.263Z,98827.52
2019-05-18T04:22:14.843Z,98829.36
2019-05-18T04:24:41.606Z,98826.66
2019-05-18T04:27:10.243Z,98822.59
2019-05-18T04:29:36.943Z,98830.55
2019-05-18T04:32:03.717Z,98831.48
2019-05-18T04:34:30.468Z,98835.41
2019-05-18T04:36:57.058Z,98832.16
2019-05-18T04:39:24.023Z,98834.44
2019-05-18T04:41:50.700Z,98828.26
2019-05-18T04:44:17.382Z,98831.06
2019-05-18T04:46:44.062Z,98834.03
2019-05-18T04:49:10.731Z,98829.38
2019-05-18T04:51:37.398Z,98834.09
2019-05-18T04:54:04.097Z,98830.13
2019-05-18T04:56:30.743Z,98830.77
2019-05-18T04:58:57.546Z,98836.98
2019-05-18T05:01:24.108Z,98835.97
2019-05-18T05:03:50.839Z,98844.59
2019-05-18T05:06:17.394Z,98840.66
2019-05-18T05:08:44.228Z,98840.77
2019-05-18T05:11:10.996Z,98843.70
2019-05-18T05:13:37.852Z,98831.08
2019-05-18T05:16:04.514Z,98832.22
2019-05-18T05:18:31.110Z,98829.38
2019-05-18T05:20:57.770Z,98831.06
2019-05-18T05:23:24.483Z,98820.89
2019-05-18T05:25:51.215Z,98824.42
2019-05-18T05:28:17.957Z,98825.10
2019-05-18T05:30:44.519Z,98820.92
2019-05-18T05:33:11.257Z,98812.73
2019-05-18T05:35:37.989Z,98810.59
2019-05-18T05:38:04.656Z,98805.58
2019-05-18T05:40:31.360Z,98809.80
2019-05-18T05:42:58.035Z,98807.97
2019-05-18T05:45:24.621Z,98808.70
2019-05-18T05:47:51.316Z,98803.45
2019-05-18T05:50:18.334Z,98801.11
2019-05-18T05:52:45.118Z,98797.64
2019-05-18T05:55:12.645Z,98796.84
2019-05-18T05:57:39.418Z,98796.98
2019-05-18T06:00:07.845Z,98808.16
2019-05-18T06:02:34.611Z,98808.56
2019-05-18T06:05:01.289Z,98808.09
2019-05-18T06:07:27.977Z,98811.13
2019-05-18T06:09:54.664Z,98814.66
2019-05-18T06:12:21.323Z,98809.14
2019-05-18T06:14:48.112Z,98811.77
2019-05-18T06:17:14.772Z,98822.03
2019-05-18T06:19:41.384Z,98825.13
2019-05-18T06:22:08.166Z,98826.53
2019-05-18T06:24:34.753Z,98824.81
2019-05-18T06:27:01.575Z,98821.17
2019-05-18T06:29:28.256Z,98818.08
2019-05-18T06:31:54.843Z,98817.02
2019-05-18T06:34:21.509Z,98814.53
2019-05-18T06:36:48.146Z,98817.96
2019-05-18T06:39:14.938Z,98822.28
2019-05-18T06:41:41.668Z,98822.06
2019-05-18T06:44:08.473Z,98823.02
2019-05-18T06:46:35.178Z,98825.47
2019-05-18T06:49:04.018Z,98825.30
2019-05-18T06:51:30.793Z,98812.63
2019-05-18T06:53:57.689Z,98819.38
2019-05-18T06:56:24.855Z,98812.78
2019-05-18T06:58:52.665Z,98812.76
2019-05-18T07:01:19.336Z,98818.89
2019-05-18T07:03:45.918Z,98818.40
2019-05-18T07:06:12.721Z,98826.03
2019-05-18T07:08:39.811Z,98826.13
2019-05-18T07:11:06.484Z,98821.61
2019-05-18T07:13:33.205Z,98819.84
2019-05-18T07:15:59.875Z,98823.38
2019-05-18T07:18:26.464Z,98814.34
2019-05-18T07:20:53.302Z,98809.78
2019-05-18T07:23:20.084Z,98810.80
2019-05-18T07:25:46.871Z,98816.38
2019-05-18T07:28:13.651Z,98819.54
2019-05-18T07:30:40.222Z,98818.80
2019-05-18T07:33:06.991Z,98816.20
2019-05-18T07:35:33.769Z,98808.97
2019-05-18T07:38:00.338Z,98810.94
2019-05-18T07:40:27.133Z,98806.71
2019-05-18T07:42:53.910Z,98808.12
2019-05-18T07:45:20.719Z,98811.20
2019-05-18T07:47:47.389Z,98807.27
2019-05-18T07:50:14.276Z,98800.77
2019-05-18T07:52:40.999Z,98799.89
2019-05-18T07:55:07.913Z,98805.95
2019-05-18T07:57:34.671Z,98803.69
2019-05-18T08:00:01.366Z,98798.83
2019-05-18T08:02:27.927Z,98803.31
2019-05-18T08:04:54.634Z,98807.93
2019-05-18T08:07:21.468Z,98800.58
2019-05-18T08:09:48.321Z,98807.96
2019-05-18T08:12:14.987Z,98804.15
2019-05-18T08:14:41.669Z,98809.20
2019-05-18T08:17:08.430Z,98805.53
2019-05-18T08:19:35.218Z,98805.19
2019-05-18T08:22:01.988Z,98803.89
2019-05-18T08:24:28.742Z,98800.01
2019-05-18T08:26:55.303Z,98794.57
2019-05-18T08:29:22.027Z,98800.69
2019-05-18T08:31:48.826Z,98792.08
2019-05-18T08:34:15.597Z,98787.19
2019-05-18T08:36:42.162Z,98791.87
2019-05-18T08:39:08.977Z,98781.80
2019-05-18T08:41:35.775Z,98789.10
2019-05-18T08:44:03.690Z,98786.20
2019-05-18T08:46:30.279Z,98783.14
2019-05-18T08:48:57.084Z,98784.00
2019-05-18T08:51:23.861Z,98782.59
2019-05-18T08:53:50.651Z,98783.25
2019-05-18T08:56:17.295Z,98775.39
2019-05-18T08:58:43.855Z,98780.36
2019-05-18T09:01:10.627Z,98777.97
2019-05-18T09:03:37.287Z,98779.16
2019-05-18T09:06:04.203Z,98783.69
2019-05-18T09:08:30.861Z,98784.24
2019-05-18T09:10:57.651Z,98783.19
2019-05-18T09:13:24.234Z,98783.27
2019-05-18T09:15:50.959Z,98789.40
2019-05-18T09:18:17.731Z,98788.58
2019-05-18T09:20:44.408Z,98787.27
2019-05-18T09:23:11.169Z,98791.42
2019-05-18T09:25:37.841Z,98787.44
2019-05-18T09:28:04.994Z,98785.54
2019-05-18T09:30:32.174Z,98786.95
2019-05-18T09:32:58.845Z,98782.63
2019-05-18T09:35:25.604Z,98779.06
2019-05-18T09:37:54.359Z,98776.69
2019-05-18T09:40:21.034Z,98774.82
2019-05-18T09:42:48.147Z,98776.41
2019-05-18T09:45:16.755Z,98771.88
2019-05-18T09:47:43.536Z,98775.16
2019-05-18T09:50:11.218Z,98770.52
2019-05-18T09:52:46.149Z,98776.92
2019-05-18T09:55:07.237Z,98767.23
2019-05-18T09:57:34.019Z,98765.80
2019-05-18T10:00:00.930Z,98765.87
2019-05-18T10:02:29.232Z,98761.42
2019-05-18T10:04:55.767Z,98769.30
2019-05-18T10:07:22.455Z,98769.03
2019-05-18T10:09:49.023Z,98765.25
2019-05-18T10:12:15.727Z,98774.19
2019-05-18T10:14:42.393Z,98760.47
2019-05-18T10:17:09.186Z,98768.48
2019-05-18T10:19:35.850Z,98769.76
2019-05-18T10:22:02.556Z,98771.25
2019-05-18T10:24:29.364Z,98770.55
2019-05-18T10:26:56.061Z,98766.00
2019-05-18T10:29:22.821Z,98769.31
2019-05-18T10:31:49.606Z,98759.06
2019-05-18T10:34:16.361Z,98763.97
2019-05-18T10:36:43.043Z,98755.63
2019-05-18T10:39:09.892Z,98750.89
2019-05-18T10:41:37.016Z,98746.98
2019-05-18T10:44:03.890Z,98751.11
2019-05-18T10:46:30.691Z,98752.61
2019-05-18T10:48:57.406Z,98755.61
2019-05-18T10:51:24.182Z,98748.20
2019-05-18T10:53:52.397Z,98749.73
2019-05-18T10:56:19.175Z,98754.58
2019-05-18T10:58:45.867Z,98742.30
2019-05-18T11:01:12.555Z,98741.11
2019-05-18T11:03:39.246Z,98748.31
2019-05-18T11:06:06.079Z,98744.25
2019-05-18T11:08:38.136Z,98744.85
2019-05-18T11:11:03.468Z,98752.43
2019-05-18T11:13:31.898Z,98740.30
2019-05-18T11:15:58.730Z,98743.22
2019-05-18T11:18:25.309Z,98739.06
2019-05-18T11:20:52.000Z,98736.92
2019-05-18T11:23:43.730Z,98736.98
2019-05-18T11:26:08.830Z,98730.77
2019-05-18T11:28:35.638Z,98740.90
2019-05-18T11:31:02.416Z,98734.66
2019-05-18T11:33:29.111Z,98704.16
2019-05-18T11:35:55.880Z,98736.70
2019-05-18T11:38:22.639Z,98732.88
2019-05-18T11:40:49.401Z,98734.24
2019-05-18T11:43:16.631Z,98731.73
2019-05-18T11:45:43.391Z,98738.47
2019-05-18T11:48:10.211Z,98734.38
2019-05-18T11:50:36.952Z,98721.44
2019-05-18T11:53:03.748Z,98728.56
2019-05-18T11:55:30.516Z,98730.77
2019-05-18T11:57:57.301Z,98718.50
2019-05-18T12:00:24.679Z,98717.45
2019-05-18T12:02:51.490Z,98719.27
2019-05-18T12:05:19.098Z,98721.54
2019-05-18T12:07:45.936Z,98714.63
2019-05-18T12:10:13.823Z,98716.14
2019-05-18T12:12:40.636Z,98718.05
2019-05-18T12:15:09.625Z,98721.19
2019-05-18T12:17:36.406Z,98717.75
2019-05-18T12:20:05.131Z,98718.95
2019-05-18T12:22:31.807Z,98715.99
2019-05-18T12:24:58.478Z,98714.13
2019-05-18T12:27:26.934Z,98713.83
2019-05-18T12:29:53.600Z,98711.88
2019-05-18T12:32:20.395Z,98710.81
2019-05-18T12:34:47.191Z,98708.56
2019-05-18T12:37:21.706Z,98709.28
2019-05-18T12:42:20.847Z,98711.22
2019-05-18T12:44:47.652Z,98709.02
2019-05-18T12:47:14.647Z,98708.53
2019-05-18T12:49:41.451Z,98705.81
2019-05-18T12:52:08.204Z,98707.00
2019-05-18T12:54:45.975Z,98702.91
2019-05-18T12:57:03.652Z,98694.41
2019-05-18T12:59:30.349Z,98698.10
2019-05-18T13:01:56.911Z,98696.94
2019-05-18T13:04:23.703Z,98685.41
2019-05-18T13:06:50.466Z,98694.97
2019-05-18T13:09:17.261Z,98688.41
2019-05-18T13:11:43.932Z,98685.30
2019-05-18T13:14:10.638Z,98687.81
2019-05-18T13:16:37.303Z,98689.13
2019-05-18T13:19:04.090Z,98690.86
2019-05-18T13:21:30.932Z,98681.84
2019-05-18T13:23:57.714Z,98685.15
2019-05-18T13:26:24.519Z,98682.75
2019-05-18T13:28:51.203Z,98674.30
2019-05-18T13:31:17.878Z,98676.26
2019-05-18T13:33:44.660Z,98673.70
2019-05-18T13:36:11.393Z,98683.06
2019-05-18T13:38:38.184Z,98684.90
2019-05-18T13:41:04.856Z,98682.48
2019-05-18T13:43:31.440Z,98687.85
2019-05-18T13:45:58.231Z,98686.32
2019-05-18T13:48:25.006Z,98678.90
2019-05-18T13:50:51.767Z,98676.03
2019-05-18T13:53:18.643Z,98680.80
2019-05-18T13:55:45.432Z,98679.34
2019-05-18T13:58:12.494Z,98684.67
2019-05-18T14:00:39.345Z,98678.95
2019-05-18T14:03:06.106Z,98676.98
2019-05-18T14:05:32.802Z,98674.44
2019-05-18T14:07:59.477Z,98667.32
2019-05-18T14:10:26.257Z,98665.32
2019-05-18T14:12:53.027Z,98674.27
2019-05-18T14:15:22.749Z,98681.11
2019-05-18T14:17:48.693Z,98681.86
2019-05-18T14:20:15.564Z,98687.48
2019-05-18T14:22:42.351Z,98677.41
2019-05-18T14:25:18.816Z,98676.45
2019-05-18T14:27:37.918Z,98676.03
2019-05-18T14:30:05.431Z,98673.36
2019-05-18T14:32:32.101Z,98681.58
2019-05-18T14:34:58.905Z,98676.64
2019-05-18T14:37:25.676Z,98673.81
2019-05-18T14:39:52.465Z,98666.42
2019-05-18T14:42:19.143Z,98664.98
2019-05-18T14:44:45.849Z,98669.17
2019-05-18T14:47:12.519Z,98669.93
2019-05-18T14:49:39.207Z,98659.36
2019-05-18T14:52:05.964Z,98666.66
2019-05-18T14:54:32.742Z,98658.03
2019-05-18T14:56:59.414Z,98667.34
2019-05-18T14:59:26.027Z,98663.72
2019-05-18T15:01:52.800Z,98668.77
2019-05-18T15:04:21.904Z,98662.13
2019-05-18T15:06:48.566Z,98663.10
2019-05-18T15:09:15.354Z,98661.92
2019-05-18T15:11:42.160Z,98660.00
2019-05-18T15:14:08.957Z,98662.65
2019-05-18T15:16:35.625Z,98658.52
2019-05-18T15:19:02.429Z,98659.97
2019-05-18T15:21:29.200Z,98661.75
2019-05-18T15:23:55.867Z,98660.48
2019-05-18T15:26:22.665Z,98659.08
2019-05-18T15:28:49.433Z,98664.02
2019-05-18T15:31:16.117Z,98654.46
2019-05-18T15:33:42.844Z,98656.61
2019-05-18T15:36:09.699Z,98654.78
2019-05-18T15:38:36.499Z,98646.22
2019-05-18T15:41:03.318Z,98658.39
2019-05-18T15:43:30.093Z,98654.80
2019-05-18T15:45:56.794Z,98651.73
2019-05-18T15:48:23.564Z,98651.05
2019-05-18T15:50:50.351Z,98653.17
2019-05-18T15:53:17.114Z,98647.77
2019-05-18T15:55:43.894Z,98645.25
2019-05-18T15:58:10.655Z,98650.70
2019-05-18T16:00:37.448Z,98656.45
2019-05-18T16:03:04.216Z,98648.16
2019-05-18T16:05:31.016Z,98647.04
2019-05-18T16:07:58.117Z,98643.64
2019-05-18T16:10:25.002Z,98637.67
2019-05-18T16:12:51.775Z,98643.84
2019-05-18T16:15:18.632Z,98651.31
2019-05-18T16:17:45.416Z,98649.45
2019-05-18T16:20:12.577Z,98652.11
2019-05-18T16:22:39.435Z,98652.20
2019-05-18T16:25:06.735Z,98646.69
2019-05-18T16:27:33.824Z,98647.52
2019-05-18T16:30:01.417Z,98652.16
2019-05-18T16:32:28.257Z,98651.20
2019-05-18T16:34:54.955Z,98661.95
2019-05-18T16:37:21.772Z,98659.52
2019-05-18T16:39:48.560Z,98654.34
2019-05-18T16:42:15.331Z,98662.13
2019-05-18T16:44:42.133Z,98659.61
2019-05-18T16:47:08.809Z,98663.86
2019-05-18T16:49:35.592Z,98665.27
2019-05-18T16:52:02.388Z,98654.20
2019-05-18T16:54:29.149Z,98660.68
2019-05-18T16:56:55.935Z,98655.36
2019-05-18T16:59:22.705Z,98661.34
2019-05-18T17:01:49.386Z,98659.79
2019-05-18T17:04:16.155Z,98654.55
2019-05-18T17:06:42.953Z,98660.59
2019-05-18T17:09:09.761Z,98664.36
2019-05-18T17:11:36.445Z,98669.63
2019-05-18T17:14:03.260Z,98665.73
2019-05-18T17:16:30.145Z,98660.57
2019-05-18T17:18:56.991Z,98661.00
2019-05-18T17:21:23.833Z,98692.41
2019-05-18T17:23:53.502Z,98664.61
2019-05-18T17:26:19.417Z,98666.76
2019-05-18T17:28:46.190Z,98673.06
2019-05-18T17:31:12.990Z,98674.11
2019-05-18T17:33:39.557Z,98709.66
2019-05-18T17:36:06.488Z,98682.89
2019-05-18T17:38:33.148Z,98679.41
2019-05-18T17:40:59.956Z,98684.52
2019-05-18T17:43:26.637Z,98693.86
2019-05-18T17:45:53.338Z,98691.89
2019-05-18T17:48:19.914Z,98693.75
2019-05-18T17:50:46.656Z,98690.92
2019-05-18T17:53:13.443Z,98694.61
2019-05-18T17:55:40.130Z,98693.67
2019-05-18T17:58:06.887Z,98693.00
2019-05-18T18:00:33.680Z,98703.11
2019-05-18T18:03:00.355Z,98703.16
2019-05-18T18:05:27.118Z,98706.95
2019-05-18T18:07:55.638Z,98699.70
2019-05-18T18:10:22.694Z,98695.97
2019-05-18T18:12:49.387Z,98699.47
2019-05-18T18:15:16.547Z,98697.08
2019-05-18T18:17:43.318Z,98699.77
2019-05-18T18:20:10.925Z,98699.51
2019-05-18T18:22:37.981Z,98703.78
2019-05-18T18:25:05.420Z,98701.48
2019-05-18T18:27:32.200Z,98706.13
2019-05-18T18:29:59.086Z,98711.88
2019-05-18T18:32:25.791Z,98709.27
2019-05-18T18:34:52.556Z,98709.86
2019-05-18T18:37:20.311Z,98714.27
2019-05-18T18:39:46.906Z,98716.83
2019-05-18T18:42:13.652Z,98725.50
2019-05-18T18:44:40.439Z,98720.66
2019-05-18T18:47:07.228Z,98724.17
2019-05-18T18:49:33.828Z,98724.62
2019-05-18T18:52:00.527Z,98726.70
2019-05-18T18:54:27.434Z,98727.27
2019-05-18T18:56:54.407Z,98728.26
2019-05-18T18:59:21.053Z,98723.23
2019-05-18T19:01:47.829Z,98719.55
2019-05-18T19:04:14.390Z,98723.30
2019-05-18T19:06:41.214Z,98729.37
2019-05-18T19:09:07.976Z,98725.50
2019-05-18T19:11:34.687Z,98726.66
2019-05-18T19:14:01.536Z,98729.56
2019-05-18T19:16:28.195Z,98736.49
2019-05-18T19:18:54.901Z,98738.56
2019-05-18T19:21:21.695Z,98737.81
2019-05-18T19:23:48.260Z,98741.93
2019-05-18T19:26:14.925Z,98747.80
2019-05-18T19:28:41.599Z,98750.48
2019-05-18T19:31:08.357Z,98744.84
2019-05-18T19:33:34.940Z,98742.63
2019-05-18T19:36:01.734Z,98741.84
2019-05-18T19:38:28.395Z,98747.75
2019-05-18T19:40:55.061Z,98753.95
2019-05-18T19:43:21.735Z,98761.11
2019-05-18T19:45:48.418Z,98754.73
2019-05-18T19:48:15.201Z,98757.68
2019-05-18T19:50:41.963Z,98766.87
2019-05-18T19:53:08.747Z,98765.00
2019-05-18T19:55:35.503Z,98764.63
2019-05-18T19:58:08.821Z,98768.84
2019-05-18T20:00:31.907Z,98769.51
2019-05-18T20:02:58.853Z,98760.27
2019-05-18T20:05:25.527Z,98765.66
2019-05-18T20:07:52.725Z,98767.64
2019-05-18T20:10:20.233Z,98758.05
2019-05-18T20:12:47.828Z,98766.50
2019-05-18T20:15:14.604Z,98759.33
2019-05-18T20:17:41.312Z,98762.39
2019-05-18T20:20:08.438Z,98767.67
2019-05-18T20:22:36.414Z,98767.37
2019-05-18T20:25:03.627Z,98768.14
2019-05-18T20:27:30.430Z,98768.52
2019-05-18T20:29:57.108Z,98771.94
2019-05-18T20:32:23.885Z,98772.40
2019-05-18T20:34:50.477Z,98772.86
2019-05-18T20:37:17.055Z,98774.16
2019-05-18T20:39:43.891Z,98771.17
2019-05-18T20:42:10.577Z,98766.36
2019-05-18T20:44:37.284Z,98772.08
2019-05-18T20:47:04.050Z,98770.81
2019-05-18T20:49:30.740Z,98768.09
2019-05-18T20:51:57.805Z,98768.13
2019-05-18T20:54:24.492Z,98770.20
2019-05-18T20:56:51.202Z,98765.05
2019-05-18T20:59:18.341Z,98771.56
2019-05-18T21:01:45.176Z,98768.70
2019-05-18T21:04:11.760Z,98766.61
2019-05-18T21:06:38.415Z,98772.69
2019-05-18T21:09:05.495Z,98765.45
2019-05-18T21:11:32.278Z,98774.16
2019-05-18T21:13:58.958Z,98767.02
2019-05-18T21:16:25.628Z,98771.27
2019-05-18T21:18:52.331Z,98773.86
2019-05-18T21:21:24.666Z,98765.11
2019-05-18T21:23:47.687Z,98769.81
2019-05-18T21:26:14.270Z,98769.55
2019-05-18T21:28:54.724Z,98769.08
2019-05-18T21:31:09.735Z,98770.05
2019-05-18T21:33:36.417Z,98774.37
2019-05-18T21:36:03.237Z,98770.38
2019-05-18T21:38:29.986Z,98766.18
2019-05-18T21:40:56.763Z,98773.70
2019-05-18T21:43:23.365Z,98772.95
2019-05-18T21:45:50.157Z,98779.46
2019-05-18T21:48:16.947Z,98784.21
2019-05-18T21:50:43.620Z,98776.68
2019-05-18T21:53:10.429Z,98774.37
2019-05-18T21:55:37.215Z,98780.61
2019-05-18T21:58:03.799Z,98772.19
2019-05-18T22:00:30.890Z,98777.24
2019-05-18T22:02:57.553Z,98773.73
2019-05-18T22:05:24.234Z,98770.43
2019-05-18T22:07:51.003Z,98767.17
2019-05-18T22:10:25.826Z,98770.60
2019-05-18T22:12:46.812Z,98764.73
2019-05-18T22:15:13.597Z,98762.98
2019-05-18T22:17:58.410Z,98759.94
2019-05-18T22:20:25.222Z,98769.41
2019-05-18T22:22:51.884Z,98766.19
2019-05-18T22:25:18.680Z,98761.98
2019-05-18T22:27:45.391Z,98769.13
2019-05-18T22:30:12.155Z,98768.14
2019-05-18T22:32:38.964Z,98772.38
2019-05-18T22:35:06.018Z,98770.77
2019-05-18T22:37:32.710Z,98767.34
2019-05-18T22:39:59.414Z,98769.97
2019-05-18T22:42:26.074Z,98768.01
2019-05-18T22:44:52.680Z,98774.02
2019-05-18T22:47:19.311Z,98775.02
2019-05-18T22:49:47.124Z,98766.72
2019-05-18T22:52:13.816Z,98761.82
2019-05-18T22:54:40.374Z,98760.87
2019-05-18T22:57:07.042Z,98765.25
2019-05-18T22:59:33.731Z,98757.62
2019-05-18T23:02:00.315Z,98762.14
2019-05-18T23:04:27.092Z,98763.30
2019-05-18T23:06:53.748Z,98763.95
2019-05-18T23:09:20.468Z,98761.20
2019-05-18T23:11:47.165Z,98765.75
2019-05-18T23:14:13.855Z,98761.64
2019-05-18T23:16:40.639Z,98754.98
2019-05-18T23:19:07.327Z,98757.09
2019-05-18T23:21:34.095Z,98752.20
2019-05-18T23:24:00.757Z,98752.84
2019-05-18T23:26:27.545Z,98753.48
2019-05-18T23:28:54.321Z,98753.31
2019-05-18T23:31:21.139Z,98752.50
2019-05-18T23:33:47.877Z,98755.08
2019-05-18T23:36:14.559Z,98750.37
2019-05-18T23:38:41.260Z,98750.22
2019-05-18T23:41:07.947Z,98745.38
2019-05-18T23:43:34.699Z,98747.66
2019-05-18T23:46:01.367Z,98742.61
2019-05-18T23:48:28.047Z,98749.07
2019-05-18T23:50:54.728Z,98745.64
2019-05-18T23:53:21.504Z,98737.52
2019-05-18T23:55:48.193Z,98744.97
2019-05-18T23:58:14.858Z,98743.63
